Time;durP1;ratioP1;P1;durP2;ratioP2;P2;SDS_P1;SDS_P2;PMS_P1;PMS_P2;Temp;Humidity;BMP_temperature;BMP_pressure;BME280_temperature;BME280_humidity;BME280_pressure;Samples;Min_cycle;Max_cycle;Signal;HPM_P1;HPM_P2
2021/07/09 00:00:47;;;;;;;14.65;8.00;;;;;;;22.45;51.29;100704.63;6183763;23;20035;-71
2021/07/09 00:03:12;;;;;;;17.25;8.25;;;;;;;22.43;51.55;100711.28;6185132;23;20020;-74
2021/07/09 00:05:38;;;;;;;13.95;8.25;;;;;;;22.38;51.54;100711.81;6184979;23;20005;-73
2021/07/09 00:08:04;;;;;;;13.93;8.63;;;;;;;22.35;51.85;100717.66;6183659;23;20001;-73
2021/07/09 00:10:29;;;;;;;19.35;8.35;;;;;;;22.33;52.21;100725.16;6183694;23;20005;-68
2021/07/09 00:12:55;;;;;;;18.58;7.90;;;;;;;22.29;52.21;100718.38;6184394;23;20040;-74
2021/07/09 00:15:20;;;;;;;13.07;7.85;;;;;;;22.26;52.39;100716.00;6181586;23;20013;-70
2021/07/09 00:17:46;;;;;;;11.50;8.13;;;;;;;22.22;52.62;100710.91;6154658;23;20009;-71
2021/07/09 00:20:11;;;;;;;20.80;8.55;;;;;;;22.18;52.75;100712.28;6181732;23;20072;-71
2021/07/09 00:22:37;;;;;;;20.70;8.40;;;;;;;22.14;53.00;100700.03;6184123;23;20323;-74
2021/07/09 00:25:04;;;;;;;14.20;8.80;;;;;;;22.10;52.86;100706.88;6183759;23;20076;-74
2021/07/09 00:27:30;;;;;;;20.88;9.13;;;;;;;22.08;53.23;100704.34;6183221;23;20005;-65
2021/07/09 00:29:55;;;;;;;18.85;8.15;;;;;;;22.07;53.37;100704.50;6157023;23;20360;-73
2021/07/09 00:32:20;;;;;;;15.73;9.30;;;;;;;22.03;53.51;100708.63;6183620;23;20092;-73
2021/07/09 00:34:46;;;;;;;16.27;9.15;;;;;;;22.01;53.63;100697.88;6183667;23;20001;-70
2021/07/09 00:37:11;;;;;;;14.45;8.15;;;;;;;21.98;53.86;100689.22;6183621;23;20002;-70
2021/07/09 00:39:37;;;;;;;17.75;8.48;;;;;;;21.98;53.80;100700.13;6183594;23;20400;-70
2021/07/09 00:42:03;;;;;;;20.13;8.82;;;;;;;21.94;54.05;100703.22;6183094;23;20009;-71
2021/07/09 00:44:28;;;;;;;16.45;8.07;;;;;;;21.90;53.66;100699.13;6183544;23;20404;-71
2021/07/09 00:46:54;;;;;;;14.77;8.30;;;;;;;21.88;54.11;100706.63;6132050;23;20036;-73
2021/07/09 00:49:20;;;;;;;17.17;8.93;;;;;;;21.86;54.40;100697.78;6183564;23;20033;-73
2021/07/09 00:51:46;;;;;;;15.40;8.70;;;;;;;21.83;54.40;100703.59;6183401;23;20070;-70
2021/07/09 00:54:11;;;;;;;14.18;9.07;;;;;;;21.78;54.42;100706.84;6183403;23;20001;-74
2021/07/09 00:56:37;;;;;;;11.25;8.23;;;;;;;21.76;54.41;100703.44;6182950;23;20338;-72
2021/07/09 00:59:04;;;;;;;13.23;8.57;;;;;;;21.73;54.64;100697.50;6183430;23;20139;-72
2021/07/09 01:01:29;;;;;;;17.95;8.10;;;;;;;21.75;54.91;100701.75;6156737;23;20009;-73
2021/07/09 01:03:55;;;;;;;17.13;8.52;;;;;;;21.74;54.75;100694.59;6183656;23;20076;-73
2021/07/09 01:06:21;;;;;;;12.90;8.50;;;;;;;21.55;55.26;100660.41;6183049;23;20005;-72
2021/07/09 01:08:47;;;;;;;13.70;8.60;;;;;;;21.69;54.95;100687.97;6183227;23;20085;-72
2021/07/09 01:11:12;;;;;;;18.70;9.55;;;;;;;21.56;55.28;100662.09;6183714;23;20475;-73
2021/07/09 01:13:40;;;;;;;21.90;9.10;;;;;;;21.71;55.45;100688.66;6183681;23;20009;-73
2021/07/09 01:16:06;;;;;;;17.35;9.02;;;;;;;21.65;55.61;100679.31;6180867;23;20009;-71
2021/07/09 01:18:32;;;;;;;16.10;8.98;;;;;;;21.68;55.44;100692.56;6186527;23;20411;-70
2021/07/09 01:20:57;;;;;;;12.20;7.90;;;;;;;21.65;55.71;100691.03;6183514;23;20005;-72
2021/07/09 01:23:27;;;;;;;17.38;8.75;;;;;;;21.72;55.37;100695.81;6181603;23;20355;-70
2021/07/09 01:25:54;;;;;;;20.55;8.98;;;;;;;21.69;55.37;100704.31;6180882;23;20025;-72
2021/07/09 01:28:20;;;;;;;16.05;8.90;;;;;;;21.70;55.75;100697.84;6182163;23;20001;-72
2021/07/09 01:30:45;;;;;;;24.15;9.48;;;;;;;21.73;55.52;100700.25;6184104;23;20206;-72
2021/07/09 01:33:10;;;;;;;15.82;9.20;;;;;;;21.72;55.75;100690.38;6183588;23;20059;-73
2021/07/09 01:35:36;;;;;;;19.17;8.52;;;;;;;21.72;55.89;100696.66;6184637;23;20028;-76
2021/07/09 01:38:06;;;;;;;19.02;8.70;;;;;;;21.77;55.88;100690.69;6185868;23;20009;-70
2021/07/09 01:40:32;;;;;;;16.45;8.65;;;;;;;21.75;56.05;100681.81;6186055;23;20009;-71
2021/07/09 01:42:59;;;;;;;15.35;9.10;;;;;;;21.76;55.76;100684.38;6185616;23;20127;-72
2021/07/09 01:45:25;;;;;;;16.60;9.20;;;;;;;21.77;55.65;100686.06;6185188;23;20013;-73
2021/07/09 01:47:52;;;;;;;15.10;8.73;;;;;;;21.75;56.13;100684.56;6185331;23;20036;-70
2021/07/09 01:50:18;;;;;;;21.17;8.90;;;;;;;21.80;56.23;100682.97;6199219;23;20073;-72
2021/07/09 01:52:45;;;;;;;21.65;9.60;;;;;;;21.80;55.80;100676.69;6201467;23;20338;-72
2021/07/09 01:55:13;;;;;;;22.05;10.20;;;;;;;21.87;55.86;100694.03;6185465;23;20028;-73
2021/07/09 01:57:39;;;;;;;14.93;9.57;;;;;;;21.89;55.98;100689.25;6185480;23;20014;-73
2021/07/09 02:00:10;;;;;;;17.23;9.30;;;;;;;21.97;55.56;100679.34;6186193;23;20011;-65
2021/07/09 02:02:37;;;;;;;11.98;8.70;;;;;;;21.97;55.72;100682.91;6185797;23;20443;-73
2021/07/09 02:05:06;;;;;;;16.50;9.57;;;;;;;22.03;55.37;100686.81;6185532;23;20435;-73
2021/07/09 02:07:31;;;;;;;16.65;8.63;;;;;;;21.87;55.69;100644.97;6184859;23;20009;-73
2021/07/09 02:09:58;;;;;;;15.02;9.18;;;;;;;22.11;55.66;100685.91;6185672;23;20001;-74
2021/07/09 02:12:25;;;;;;;15.00;8.23;;;;;;;22.16;55.32;100681.59;6185015;23;20036;-75
2021/07/09 02:14:51;;;;;;;13.02;8.70;;;;;;;22.20;55.31;100684.84;6184466;23;20017;-73
2021/07/09 02:17:18;;;;;;;13.43;9.02;;;;;;;22.28;55.13;100689.41;6182122;23;20012;-76
2021/07/09 02:19:44;;;;;;;15.45;8.60;;;;;;;22.40;54.73;100693.38;6183140;23;20068;-72
2021/07/09 02:22:12;;;;;;;14.65;8.63;;;;;;;22.55;54.27;100681.75;6182624;23;20076;-74
2021/07/09 02:24:49;;;;;;;13.18;8.70;;;;;;;22.78;53.96;100685.31;6185031;23;19997;-73
2021/07/09 02:27:15;;;;;;;12.65;8.73;;;;;;;23.00;52.97;100679.13;6185049;23;20001;-74
2021/07/09 02:29:41;;;;;;;12.40;7.97;;;;;;;23.20;52.52;100672.13;6184664;23;20011;-67
2021/07/09 02:32:12;;;;;;;13.90;8.40;;;;;;;23.51;51.67;100684.81;6185013;23;20013;-70
2021/07/09 02:34:40;;;;;;;10.88;8.00;;;;;;;23.76;50.54;100680.91;6185090;23;19997;-72
2021/07/09 02:37:07;;;;;;;10.70;8.00;;;;;;;24.09;49.86;100680.50;6185559;23;20028;-74
2021/07/09 02:39:33;;;;;;;13.38;8.20;;;;;;;24.37;48.52;100655.16;6184850;23;20001;-73
2021/07/09 02:41:59;;;;;;;16.38;8.38;;;;;;;25.01;47.64;100678.06;6184855;23;20040;-71
2021/07/09 02:44:26;;;;;;;17.65;9.23;;;;;;;25.37;46.62;100679.81;6185231;23;20008;-71
2021/07/09 02:46:52;;;;;;;16.73;9.02;;;;;;;25.58;45.99;100683.56;6184957;23;20001;-70
2021/07/09 02:49:18;;;;;;;19.83;9.20;;;;;;;25.52;46.03;100656.91;6184697;23;20079;-71
2021/07/09 02:51:44;;;;;;;17.27;9.80;;;;;;;25.72;45.61;100680.88;6184757;23;20009;-71
2021/07/09 02:54:09;;;;;;;22.77;9.40;;;;;;;25.47;45.90;100648.47;6184594;23;20055;-70
2021/07/09 02:56:35;;;;;;;17.65;9.35;;;;;;;25.56;45.61;100680.16;6184812;23;20009;-74
2021/07/09 02:59:01;;;;;;;21.08;9.40;;;;;;;25.42;46.06;100684.66;6184957;23;20001;-72
2021/07/09 03:01:26;;;;;;;23.90;9.32;;;;;;;25.33;46.20;100686.75;6184596;23;20012;-73
2021/07/09 03:03:54;;;;;;;19.85;9.43;;;;;;;25.34;46.47;100688.44;6184333;23;20031;-73
2021/07/09 03:06:20;;;;;;;23.10;9.10;;;;;;;25.14;46.12;100649.09;6185560;23;20056;-72
2021/07/09 03:08:46;;;;;;;23.98;9.40;;;;;;;25.51;45.84;100679.91;6159528;23;20005;-73
2021/07/09 03:11:12;;;;;;;21.17;9.30;;;;;;;25.74;44.84;100657.69;6134251;23;20075;-71
2021/07/09 03:13:37;;;;;;;19.02;9.18;;;;;;;26.33;44.17;100671.00;6184550;23;20045;-72
2021/07/09 03:16:03;;;;;;;21.85;8.68;;;;;;;26.88;42.66;100670.00;6184800;23;20327;-71
2021/07/09 03:18:29;;;;;;;14.77;8.05;;;;;;;27.46;41.25;100665.69;6181743;23;20009;-71
2021/07/09 03:20:54;;;;;;;18.15;8.98;;;;;;;28.02;39.96;100664.25;6182119;23;20310;-72
2021/07/09 03:23:20;;;;;;;17.92;8.35;;;;;;;28.58;38.90;100660.97;6182346;23;20002;-73
2021/07/09 03:25:46;;;;;;;17.05;8.65;;;;;;;29.04;37.99;100659.75;6184746;23;20072;-73
2021/07/09 03:28:11;;;;;;;14.60;7.70;;;;;;;29.52;36.92;100665.66;6184504;23;20143;-71
2021/07/09 03:30:37;;;;;;;16.27;7.90;;;;;;;30.02;35.45;100664.66;6158149;23;20404;-72
2021/07/09 03:33:02;;;;;;;14.40;8.15;;;;;;;30.57;34.49;100659.16;6184296;23;20009;-73
2021/07/09 03:35:28;;;;;;;12.02;7.60;;;;;;;30.94;33.41;100636.91;6184529;23;20005;-70
2021/07/09 03:37:53;;;;;;;13.55;7.50;;;;;;;31.54;32.63;100656.25;6185195;23;19997;-69
2021/07/09 03:40:19;;;;;;;13.93;7.32;;;;;;;32.06;31.83;100652.59;6187712;23;20008;-71
2021/07/09 03:42:44;;;;;;;16.40;7.55;;;;;;;32.56;30.80;100661.31;6184911;23;20005;-72
2021/07/09 03:45:10;;;;;;;13.55;7.68;;;;;;;33.07;30.26;100661.28;6184683;23;19997;-66
2021/07/09 03:47:35;;;;;;;14.70;7.60;;;;;;;33.35;29.72;100659.47;6184837;23;20008;-69
2021/07/09 03:50:01;;;;;;;12.25;7.13;;;;;;;33.66;28.74;100667.41;6184517;23;20009;-68
2021/07/09 03:52:26;;;;;;;14.73;7.72;;;;;;;33.85;28.40;100660.41;6184332;23;20012;-70
2021/07/09 03:54:52;;;;;;;15.80;7.32;;;;;;;34.25;27.99;100668.66;6200265;23;20001;-69
2021/07/09 03:57:17;;;;;;;16.55;7.57;;;;;;;34.40;27.41;100641.00;6185824;23;20013;-68
2021/07/09 03:59:42;;;;;;;7.72;6.88;;;;;;;35.09;26.46;100658.00;6183716;23;20036;-67
2021/07/09 04:02:08;;;;;;;16.73;7.95;;;;;;;35.59;25.83;100653.00;6184235;23;20012;-69
2021/07/09 04:04:33;;;;;;;14.85;6.70;;;;;;;35.96;25.05;100655.91;6184414;23;20001;-67
2021/07/09 04:06:59;;;;;;;13.38;6.82;;;;;;;36.27;24.68;100656.00;6184299;23;20112;-66
2021/07/09 04:09:24;;;;;;;15.65;6.70;;;;;;;36.50;24.03;100654.59;6183562;23;20499;-69
2021/07/09 04:11:50;;;;;;;8.85;6.22;;;;;;;36.90;23.43;100652.13;6183396;23;20001;-69
2021/07/09 04:14:15;;;;;;;10.77;6.57;;;;;;;37.36;22.95;100653.97;6157755;23;20327;-70
2021/07/09 04:16:41;;;;;;;14.05;6.40;;;;;;;37.90;22.12;100646.78;6157512;23;20414;-69
2021/07/09 04:19:06;;;;;;;16.55;6.50;;;;;;;38.34;21.57;100652.63;6180495;23;20399;-68
2021/07/09 04:21:32;;;;;;;12.80;6.20;;;;;;;38.93;20.69;100649.94;6181050;23;20009;-67
2021/07/09 04:23:57;;;;;;;12.15;6.68;;;;;;;39.69;19.90;100659.75;6181257;23;20323;-67
2021/07/09 04:26:23;;;;;;;11.48;6.55;;;;;;;40.28;18.89;100649.13;6181003;23;20052;-68
2021/07/09 04:28:48;;;;;;;9.15;5.53;;;;;;;40.87;18.40;100654.28;6181694;23;20090;-68
2021/07/09 04:31:14;;;;;;;8.18;5.55;;;;;;;41.36;17.87;100658.72;6181322;23;20005;-70
2021/07/09 04:33:40;;;;;;;6.68;6.00;;;;;;;41.95;16.96;100658.03;6154980;23;20079;-71
2021/07/09 04:36:05;;;;;;;10.75;6.00;;;;;;;42.42;16.47;100650.16;6180951;23;20078;-67
2021/07/09 04:38:31;;;;;;;9.52;5.75;;;;;;;42.92;15.84;100653.97;6154908;23;20001;-67
2021/07/09 04:40:56;;;;;;;7.05;5.45;;;;;;;43.54;15.49;100654.25;6181266;23;20283;-70
2021/07/09 04:43:22;;;;;;;9.23;5.45;;;;;;;44.15;15.14;100647.88;6181203;23;20005;-72
2021/07/09 04:45:47;;;;;;;7.20;5.57;;;;;;;44.70;14.36;100640.66;6181375;23;20324;-72
2021/07/09 04:48:13;;;;;;;6.45;4.50;;;;;;;45.17;13.85;100644.66;6182135;23;20025;-74
2021/07/09 04:50:38;;;;;;;8.52;5.28;;;;;;;45.40;13.51;100644.41;6180059;23;20008;-71
2021/07/09 04:53:04;;;;;;;7.75;5.32;;;;;;;45.65;13.37;100634.06;6180794;23;20016;-72
2021/07/09 04:55:29;;;;;;;7.88;5.53;;;;;;;45.79;13.15;100642.31;6181886;23;20187;-72
2021/07/09 04:57:55;;;;;;;7.55;4.88;;;;;;;46.24;12.87;100629.47;6181329;23;20008;-70
2021/07/09 05:00:20;;;;;;;5.20;4.65;;;;;;;46.85;12.22;100635.66;6181073;23;20320;-74
2021/07/09 05:02:46;;;;;;;10.07;5.65;;;;;;;47.31;12.06;100612.91;6130154;23;20320;-71
2021/07/09 05:05:15;;;;;;;5.50;5.00;;;;;;;47.69;11.49;100645.72;6182396;23;20423;-70
2021/07/09 05:07:41;;;;;;;7.60;5.10;;;;;;;47.77;11.29;100640.25;6180929;23;20229;-74
2021/07/09 05:10:07;;;;;;;8.90;5.20;;;;;;;47.82;11.39;100620.97;6181055;23;20015;-73
2021/07/09 05:12:33;;;;;;;6.97;5.10;;;;;;;48.38;10.65;100647.69;6182907;23;20419;-71
2021/07/09 05:14:59;;;;;;;7.88;5.10;;;;;;;48.68;10.27;100627.41;6157174;23;20028;-73
2021/07/09 05:17:24;;;;;;;10.68;4.78;;;;;;;49.01;10.20;100628.25;6182778;23;20013;-74
2021/07/09 05:19:53;;;;;;;7.63;5.10;;;;;;;49.37;10.26;100631.16;6183442;23;20052;-74
2021/07/09 05:22:20;;;;;;;6.88;5.30;;;;;;;49.65;9.57;100641.56;6181209;23;20001;-72
2021/07/09 05:24:46;;;;;;;7.97;5.10;;;;;;;50.02;9.72;100635.47;6180999;23;20007;-72
2021/07/09 05:27:12;;;;;;;8.10;4.97;;;;;;;50.57;9.19;100636.53;6182398;23;20009;-74
2021/07/09 05:29:37;;;;;;;10.70;5.30;;;;;;;50.91;9.19;100636.72;6183950;23;20007;-75
2021/07/09 05:32:03;;;;;;;5.38;4.88;;;;;;;51.15;8.67;100631.81;6157477;23;20009;-74
2021/07/09 05:34:30;;;;;;;6.25;5.03;;;;;;;51.54;8.37;100632.41;6156982;23;20005;-69
2021/07/09 05:36:56;;;;;;;9.02;5.50;;;;;;;51.75;8.16;100635.97;6181905;23;19997;-72
2021/07/09 05:39:21;;;;;;;8.52;5.55;;;;;;;52.06;8.17;100631.88;6180370;23;20043;-72
2021/07/09 05:41:47;;;;;;;5.93;5.07;;;;;;;52.43;7.77;100626.59;6181457;23;20013;-71
2021/07/09 05:44:12;;;;;;;9.70;4.85;;;;;;;52.77;7.59;100620.78;6182898;23;20486;-71
2021/07/09 05:46:38;;;;;;;26.05;5.78;;;;;;;53.22;7.50;100609.28;6182982;23;20002;-70
2021/07/09 05:49:04;;;;;;;6.00;5.18;;;;;;;53.65;6.83;100618.06;6183852;23;20387;-71
2021/07/09 05:51:30;;;;;;;8.70;5.00;;;;;;;54.07;6.69;100615.00;6183753;23;20015;-71
2021/07/09 05:53:55;;;;;;;8.70;5.50;;;;;;;54.33;6.16;100590.06;6183620;23;20001;-72
2021/07/09 05:56:21;;;;;;;11.43;5.25;;;;;;;54.41;6.48;100619.59;6183051;23;20079;-70
2021/07/09 05:58:46;;;;;;;11.90;5.30;;;;;;;54.44;6.23;100604.44;6184321;23;20391;-72
2021/07/09 06:01:11;;;;;;;10.15;6.43;;;;;;;54.86;6.43;100601.97;6185158;23;20020;-72
2021/07/09 06:03:37;;;;;;;10.93;5.63;;;;;;;55.17;6.25;100599.50;6184475;23;19997;-72
2021/07/09 06:06:03;;;;;;;12.20;6.25;;;;;;;55.40;5.66;100610.50;6156916;23;20005;-71
2021/07/09 06:08:29;;;;;;;7.25;5.43;;;;;;;55.83;5.93;100611.56;6157427;23;20012;-73
2021/07/09 06:10:58;;;;;;;7.25;5.38;;;;;;;56.17;5.48;100620.41;6183827;23;20005;-72
2021/07/09 06:13:24;;;;;;;7.28;5.80;;;;;;;56.50;4.54;100614.44;6183557;23;20023;-72
2021/07/09 06:15:50;;;;;;;6.65;5.60;;;;;;;56.87;5.19;100615.75;6184749;23;20009;-66
2021/07/09 06:18:15;;;;;;;8.27;5.82;;;;;;;56.58;4.80;100592.22;6185075;23;19997;-69
2021/07/09 06:20:41;;;;;;;13.38;6.95;;;;;;;56.32;5.06;100586.66;6184632;23;20028;-71
2021/07/09 06:23:06;;;;;;;11.45;6.22;;;;;;;56.44;5.27;100604.66;6184944;23;20441;-68
2021/07/09 06:25:32;;;;;;;7.57;6.25;;;;;;;56.46;5.36;100596.44;6184668;23;20005;-67
2021/07/09 06:27:57;;;;;;;9.00;5.90;;;;;;;56.29;5.02;100598.97;6184679;23;20404;-66
2021/07/09 06:30:23;;;;;;;7.88;6.00;;;;;;;56.16;4.73;100600.72;6184626;23;20005;-67
2021/07/09 06:32:48;;;;;;;7.32;6.20;;;;;;;56.41;4.48;100593.97;6184425;23;20009;-64
2021/07/09 06:35:14;;;;;;;8.57;6.13;;;;;;;56.47;4.33;100583.69;6185421;23;20081;-67
2021/07/09 06:37:40;;;;;;;11.38;6.40;;;;;;;56.78;4.38;100601.06;6184342;23;20255;-66
2021/07/09 06:40:08;;;;;;;6.75;6.10;;;;;;;57.10;4.40;100599.94;6184209;23;20004;-66
2021/07/09 06:42:34;;;;;;;8.95;6.30;;;;;;;57.17;3.77;100594.13;6184799;23;20028;-68
2021/07/09 06:44:59;;;;;;;7.80;6.55;;;;;;;57.39;3.76;100587.28;6184680;23;20005;-68
2021/07/09 06:47:25;;;;;;;7.80;7.15;;;;;;;57.35;3.64;100579.53;6184280;23;20001;-66
2021/07/09 06:49:50;;;;;;;8.68;6.70;;;;;;;57.29;3.73;100561.13;6184336;23;20048;-66
2021/07/09 06:52:16;;;;;;;8.15;7.45;;;;;;;57.74;3.89;100577.38;6183613;23;20364;-67
2021/07/09 06:54:42;;;;;;;8.00;7.38;;;;;;;57.83;3.40;100581.78;6183160;23;20007;-66
2021/07/09 06:57:07;;;;;;;8.95;7.55;;;;;;;55.81;4.37;100585.34;6183100;23;20039;-67
2021/07/09 06:59:32;;;;;;;7.07;6.53;;;;;;;55.22;4.70;100581.84;6132838;23;20001;-65
2021/07/09 07:01:58;;;;;;;6.50;6.07;;;;;;;55.57;4.33;100570.66;6182430;23;20246;-64
2021/07/09 07:04:23;;;;;;;7.40;6.40;;;;;;;56.11;4.38;100583.94;6183255;23;20005;-66
2021/07/09 07:06:51;;;;;;;7.53;6.78;;;;;;;56.47;4.61;100580.81;6183774;23;20216;-66
2021/07/09 07:09:16;;;;;;;7.75;7.20;;;;;;;56.66;4.21;100578.59;6180147;23;20197;-66
2021/07/09 07:11:42;;;;;;;6.88;6.38;;;;;;;56.69;4.52;100580.63;6181513;23;20012;-67
2021/07/09 07:14:07;;;;;;;11.85;7.18;;;;;;;56.81;4.03;100554.19;6182831;23;20020;-67
2021/07/09 07:16:33;;;;;;;7.20;6.63;;;;;;;57.26;4.11;100561.91;6184771;23;20017;-66
2021/07/09 07:18:58;;;;;;;9.35;7.40;;;;;;;57.66;3.86;100578.75;6184030;23;20248;-65
2021/07/09 07:21:24;;;;;;;8.77;7.27;;;;;;;57.81;4.03;100572.75;6182818;23;20318;-67
2021/07/09 07:23:49;;;;;;;7.60;7.00;;;;;;;57.94;3.41;100573.81;6183127;23;20287;-67
2021/07/09 07:26:15;;;;;;;9.13;8.43;;;;;;;58.25;3.41;100576.63;6156257;23;20011;-66
2021/07/09 07:28:41;;;;;;;8.30;7.50;;;;;;;57.84;3.76;100584.22;6183056;23;20043;-68
2021/07/09 07:31:11;;;;;;;9.85;8.25;;;;;;;57.27;3.90;100580.03;6183283;23;20070;-67
2021/07/09 07:33:38;;;;;;;8.70;8.00;;;;;;;57.02;4.36;100592.63;6182749;23;20442;-71
2021/07/09 07:36:03;;;;;;;9.07;8.13;;;;;;;57.12;3.88;100570.75;6184179;23;20001;-64
2021/07/09 07:38:29;;;;;;;9.18;8.27;;;;;;;57.60;4.01;100577.56;6183966;23;20272;-64
2021/07/09 07:40:55;;;;;;;9.60;8.80;;;;;;;57.73;3.82;100578.63;6157611;23;20009;-67
2021/07/09 07:43:20;;;;;;;9.50;8.23;;;;;;;57.05;4.00;100565.88;6184260;23;20688;-66
2021/07/09 07:45:47;;;;;;;9.25;8.38;;;;;;;56.81;4.30;100580.09;6157343;23;20288;-66
2021/07/09 07:48:12;;;;;;;7.85;7.25;;;;;;;57.10;4.22;100579.00;6158166;23;20001;-68
2021/07/09 07:50:38;;;;;;;8.85;8.05;;;;;;;57.41;3.75;100570.41;6181890;23;20004;-69
2021/07/09 07:53:03;;;;;;;8.40;7.60;;;;;;;57.61;3.81;100550.41;6181923;23;20059;-67
2021/07/09 07:55:29;;;;;;;7.57;7.07;;;;;;;57.82;3.36;100559.97;6184439;23;20012;-69
2021/07/09 07:57:55;;;;;;;10.00;9.27;;;;;;;57.90;3.46;100542.19;6184441;23;20246;-68
2021/07/09 08:00:21;;;;;;;9.38;8.63;;;;;;;58.20;3.68;100565.59;6184218;23;20301;-68
2021/07/09 08:02:46;;;;;;;8.65;8.10;;;;;;;58.07;3.36;100562.50;6179688;23;20352;-66
2021/07/09 08:05:12;;;;;;;10.43;9.55;;;;;;;57.82;3.94;100562.84;6183669;23;20427;-63
2021/07/09 08:07:38;;;;;;;9.18;8.48;;;;;;;57.15;3.68;100544.78;6183006;23;20005;-64
2021/07/09 08:10:05;;;;;;;8.65;7.80;;;;;;;56.55;4.05;100565.13;6182895;23;20456;-67
2021/07/09 08:12:30;;;;;;;8.75;8.05;;;;;;;56.16;4.20;100557.63;6182723;23;20005;-67
2021/07/09 08:14:56;;;;;;;8.00;7.22;;;;;;;55.58;4.21;100555.88;6183403;23;20032;-64
2021/07/09 08:17:21;;;;;;;8.55;7.88;;;;;;;54.86;4.80;100544.63;6183490;23;20048;-64
2021/07/09 08:19:47;;;;;;;7.68;6.95;;;;;;;54.31;5.02;100527.47;6182927;23;20009;-63
2021/07/09 08:22:12;;;;;;;8.80;6.75;;;;;;;53.97;5.70;100522.09;6183180;23;20009;-62
2021/07/09 08:24:38;;;;;;;6.88;6.30;;;;;;;53.71;5.41;100541.25;6183274;23;20005;-62
2021/07/09 08:27:03;;;;;;;6.33;5.73;;;;;;;52.50;6.20;100538.06;6182688;23;20415;-65
2021/07/09 08:29:29;;;;;;;5.60;5.07;;;;;;;50.29;7.50;100504.59;6153162;23;20649;-65
2021/07/09 08:31:57;;;;;;;6.00;5.40;;;;;;;48.47;8.54;100538.81;6182569;23;20009;-63
2021/07/09 08:34:22;;;;;;;7.68;5.10;;;;;;;46.29;11.19;100532.16;6182928;23;20024;-66
2021/07/09 08:36:48;;;;;;;5.28;4.88;;;;;;;44.26;12.16;100532.66;6130941;23;20009;-62
2021/07/09 08:39:16;;;;;;;5.32;4.78;;;;;;;42.55;13.44;100530.25;6182440;23;20024;-64
2021/07/09 08:41:47;;;;;;;6.80;5.20;;;;;;;41.14;14.49;100528.25;6182704;23;20008;-65
2021/07/09 08:44:14;;;;;;;8.10;5.57;;;;;;;39.80;16.36;100526.75;6182510;23;20572;-65
2021/07/09 08:46:40;;;;;;;6.35;5.85;;;;;;;39.10;16.83;100520.69;6157354;23;20368;-67
2021/07/09 08:49:12;;;;;;;7.13;5.80;;;;;;;38.63;17.53;100529.63;6182974;23;20001;-64
2021/07/09 08:51:38;;;;;;;7.53;5.07;;;;;;;38.16;18.47;100532.00;6182079;23;20013;-64
2021/07/09 08:54:09;;;;;;;5.93;5.38;;;;;;;37.99;18.19;100523.22;6156522;23;20292;-67
2021/07/09 08:56:35;;;;;;;6.68;5.57;;;;;;;37.78;18.53;100520.53;6182233;23;20004;-65
2021/07/09 08:59:00;;;;;;;10.80;7.22;;;;;;;37.72;18.44;100522.53;6156113;23;20438;-65
2021/07/09 09:01:26;;;;;;;7.53;5.72;;;;;;;37.54;18.39;100529.63;6182726;23;20009;-63
2021/07/09 09:04:05;;;;;;;7.75;5.60;;;;;;;37.61;18.06;100521.75;6182807;23;20001;-66
2021/07/09 09:06:30;;;;;;;9.20;5.32;;;;;;;37.35;18.80;100513.50;6182262;23;20020;-66
2021/07/09 09:08:56;;;;;;;6.82;5.22;;;;;;;37.09;19.26;100484.06;6182504;23;20084;-64
2021/07/09 09:11:21;;;;;;;8.13;5.35;;;;;;;37.08;19.57;100507.50;6156564;23;20005;-64
2021/07/09 09:13:47;;;;;;;7.05;5.57;;;;;;;36.96;19.71;100510.59;6182770;23;20342;-64
2021/07/09 09:16:15;;;;;;;6.47;5.43;;;;;;;36.76;19.42;100512.34;6155574;23;20013;-65
2021/07/09 09:18:44;;;;;;;6.85;5.53;;;;;;;36.51;19.55;100499.28;6181965;23;20040;-69
2021/07/09 09:21:21;;;;;;;5.95;5.38;;;;;;;36.57;19.47;100499.03;6156115;23;20005;-69
2021/07/09 09:23:52;;;;;;;6.20;5.63;;;;;;;36.51;20.09;100502.88;6182399;23;20005;-66
2021/07/09 09:26:44;;;;;;;6.30;5.60;;;;;;;36.60;19.67;100503.19;6155923;23;20023;-67
2021/07/09 09:29:12;;;;;;;8.00;5.68;;;;;;;36.18;20.28;100502.41;6182366;23;20007;-67
2021/07/09 09:31:38;;;;;;;7.13;5.38;;;;;;;35.98;20.71;100501.25;6182096;23;20009;-66
2021/07/09 09:34:04;;;;;;;6.07;5.50;;;;;;;35.74;20.05;100492.63;6156174;23;20024;-68
2021/07/09 09:36:31;;;;;;;8.63;5.53;;;;;;;35.45;21.19;100507.84;6182047;23;20076;-68
2021/07/09 09:39:02;;;;;;;6.13;5.53;;;;;;;35.23;21.53;100499.72;6182194;23;20011;-66
2021/07/09 09:41:28;;;;;;;6.20;5.70;;;;;;;35.11;21.55;100496.31;6155927;23;20051;-67
2021/07/09 09:43:53;;;;;;;9.07;5.70;;;;;;;34.97;21.58;100496.81;6182345;23;20001;-66
2021/07/09 09:46:28;;;;;;;5.65;5.10;;;;;;;34.98;21.28;100498.50;6155886;23;20056;-69
2021/07/09 09:48:54;;;;;;;7.45;5.68;;;;;;;34.76;20.54;100480.03;6182822;23;20092;-69
2021/07/09 09:51:50;;;;;;;5.80;5.30;;;;;;;34.92;20.57;100486.50;6183921;23;20091;-67
2021/07/09 09:54:18;;;;;;;7.05;4.85;;;;;;;34.75;20.94;100471.94;6151951;23;20005;-63
2021/07/09 09:56:46;;;;;;;7.47;5.43;;;;;;;34.70;21.11;100480.25;6156415;23;20036;-65
2021/07/09 09:59:18;;;;;;;7.45;5.75;;;;;;;34.80;21.47;100480.31;6184266;23;20443;-65
2021/07/09 10:01:48;;;;;;;6.88;5.57;;;;;;;34.80;21.39;100479.47;6184203;23;20570;-67
2021/07/09 10:04:14;;;;;;;6.40;5.57;;;;;;;34.80;22.01;100474.75;6184398;23;20028;-65
2021/07/09 10:06:43;;;;;;;6.10;5.50;;;;;;;34.97;21.18;100480.13;6184172;23;20005;-65
2021/07/09 10:09:09;;;;;;;5.95;5.15;;;;;;;34.98;20.92;100465.09;6133001;23;20327;-66
2021/07/09 10:11:37;;;;;;;6.68;5.70;;;;;;;35.07;21.69;100473.75;6183963;23;20091;-64
2021/07/09 10:14:03;;;;;;;8.48;6.10;;;;;;;35.05;21.41;100465.72;6157180;23;20067;-68
2021/07/09 10:16:30;;;;;;;9.15;5.78;;;;;;;34.99;21.41;100464.00;6183904;23;20431;-65
2021/07/09 10:18:56;;;;;;;6.20;5.60;;;;;;;34.94;22.54;100458.38;6184588;23;20009;-64
2021/07/09 10:21:22;;;;;;;6.82;5.80;;;;;;;34.88;21.58;100459.47;6184114;23;20000;-64
2021/07/09 10:23:48;;;;;;;8.73;5.60;;;;;;;34.84;22.10;100447.22;6157551;23;20300;-67
2021/07/09 10:26:18;;;;;;;7.93;5.75;;;;;;;34.84;21.19;100461.13;6133263;23;20001;-65
2021/07/09 10:29:11;;;;;;;8.50;5.53;;;;;;;34.89;21.35;100450.88;6132742;23;20027;-66
2021/07/09 10:31:37;;;;;;;5.75;5.18;;;;;;;34.84;22.51;100456.41;6157277;23;20420;-64
2021/07/09 10:34:25;;;;;;;5.68;5.10;;;;;;;34.98;21.58;100439.22;6184223;23;20084;-65
2021/07/09 10:36:56;;;;;;;5.63;5.13;;;;;;;34.89;21.64;100436.13;6184231;23;20323;-66
2021/07/09 10:39:34;;;;;;;5.57;5.07;;;;;;;35.00;21.41;100435.09;6158505;23;20423;-67
2021/07/09 10:42:13;;;;;;;6.72;5.70;;;;;;;34.90;21.06;100441.44;6158180;23;20327;-65
2021/07/09 10:45:12;;;;;;;10.60;5.18;;;;;;;34.71;21.15;100427.13;6157445;23;20032;-66
2021/07/09 10:47:47;;;;;;;6.70;5.78;;;;;;;34.41;22.56;100423.06;6183646;23;20005;-67
2021/07/09 10:50:15;;;;;;;6.70;5.82;;;;;;;34.43;22.59;100418.09;6184446;23;20009;-66
2021/07/09 10:52:58;;;;;;;7.10;5.45;;;;;;;34.54;22.12;100421.78;6157120;23;20327;-64
2021/07/09 10:55:27;;;;;;;6.40;5.80;;;;;;;34.60;22.41;100414.31;6184473;23;20012;-66
2021/07/09 10:58:08;;;;;;;9.32;5.55;;;;;;;34.77;21.73;100417.72;6157659;23;20424;-64
2021/07/09 11:00:59;;;;;;;6.80;5.70;;;;;;;34.86;21.80;100423.63;6156952;23;20408;-64
2021/07/09 11:03:39;;;;;;;7.53;5.90;;;;;;;34.82;21.84;100410.50;6183987;23;20009;-66
2021/07/09 11:06:06;;;;;;;6.13;5.57;;;;;;;34.83;21.74;100401.88;6157509;23;20390;-64
2021/07/09 11:08:31;;;;;;;7.03;5.53;;;;;;;34.87;22.06;100408.59;6184180;23;20304;-64
2021/07/09 11:11:00;;;;;;;6.45;5.65;;;;;;;34.86;22.00;100406.06;6132489;23;20503;-70
2021/07/09 11:13:41;;;;;;;6.38;5.78;;;;;;;35.05;21.59;100404.50;6184131;23;20024;-63
2021/07/09 11:16:22;;;;;;;5.53;5.03;;;;;;;35.08;21.68;100405.06;6183469;23;20244;-65
2021/07/09 11:19:04;;;;;;;7.00;5.72;;;;;;;34.88;21.83;100403.84;6183775;23;20559;-62
2021/07/09 11:21:33;;;;;;;9.80;5.82;;;;;;;34.64;21.92;100410.72;6157874;23;19997;-66
2021/07/09 11:24:07;;;;;;;5.75;5.22;;;;;;;34.28;22.21;100407.72;6157720;23;20089;-66